Time;durP1;ratioP1;P1;durP2;ratioP2;P2;SDS_P1;SDS_P2;PMS_P1;PMS_P2;Temp;Humidity;BMP_temperature;BMP_pressure;BME280_temperature;BME280_humidity;BME280_pressure;Samples;Min_cycle;Max_cycle;Signal;HPM_P1;HPM_P2
2022/07/15 00:00:09;;;;;;;4.50;2.20;;;16.20;99.90;;;;;;5037811;28;20064;-61
2022/07/15 00:02:34;;;;;;;5.45;2.30;;;16.20;99.90;;;;;;5034771;28;20108;-61
2022/07/15 00:05:00;;;;;;;5.85;2.42;;;16.20;99.90;;;;;;5040524;28;20155;-61
2022/07/15 00:07:26;;;;;;;5.93;2.30;;;16.20;99.90;;;;;;5041867;28;20595;-61
2022/07/15 00:12:36;;;;;;;6.28;2.42;;;16.10;99.90;;;;;;5044105;28;20036;-61
2022/07/15 00:15:03;;;;;;;5.40;2.40;;;15.90;99.90;;;;;;5031947;28;20584;-61
2022/07/15 00:17:28;;;;;;;9.00;2.50;;;15.90;99.90;;;;;;5039533;28;20539;-61
2022/07/15 00:19:54;;;;;;;8.05;2.55;;;16.00;99.90;;;;;;5037395;28;20028;-60
2022/07/15 00:22:20;;;;;;;13.30;2.63;;;15.80;99.90;;;;;;5041937;28;20378;-61
2022/07/15 00:24:45;;;;;;;11.15;2.45;;;15.90;99.90;;;;;;5031373;28;20036;-61
2022/07/15 00:27:11;;;;;;;9.25;2.78;;;15.80;99.90;;;;;;5036635;28;20226;-61
2022/07/15 00:29:37;;;;;;;7.88;2.20;;;15.80;99.90;;;;;;5038320;28;20257;-61
2022/07/15 00:32:02;;;;;;;6.07;2.22;;;15.90;99.90;;;;;;5037373;28;20105;-61
2022/07/15 00:34:28;;;;;;;8.52;2.42;;;15.80;99.90;;;;;;5040600;28;20248;-61
2022/07/15 00:36:54;;;;;;;6.53;2.50;;;15.70;99.90;;;;;;5038460;28;20029;-61
2022/07/15 00:39:20;;;;;;;7.45;2.50;;;15.70;99.90;;;;;;5039290;28;20116;-61
2022/07/15 00:41:45;;;;;;;7.47;2.70;;;15.80;99.90;;;;;;5038501;28;20059;-61
2022/07/15 00:44:11;;;;;;;6.93;2.58;;;15.70;99.90;;;;;;5040212;28;20033;-61
2022/07/15 00:46:37;;;;;;;12.05;3.05;;;15.70;99.90;;;;;;5044022;28;20028;-61
2022/07/15 00:49:06;;;;;;;7.85;2.80;;;15.70;99.90;;;;;;5037553;28;20028;-61
2022/07/15 00:51:43;;;;;;;10.88;2.97;;;15.70;99.90;;;;;;5043887;28;20020;-61
2022/07/15 00:54:11;;;;;;;6.40;2.70;;;15.50;99.90;;;;;;5034588;28;20116;-61
2022/07/15 00:56:47;;;;;;;9.02;2.83;;;15.60;99.90;;;;;;5035129;28;20021;-60
2022/07/15 00:59:13;;;;;;;7.50;2.97;;;15.50;99.90;;;;;;5032590;28;20748;-61
2022/07/15 01:01:41;;;;;;;8.93;2.67;;;15.40;99.90;;;;;;5039758;28;20063;-61
2022/07/15 01:04:07;;;;;;;13.82;2.92;;;15.40;99.90;;;;;;5036582;28;20028;-61
2022/07/15 01:06:33;;;;;;;11.40;3.00;;;15.70;99.90;;;;;;5048173;28;20028;-60
2022/07/15 01:08:59;;;;;;;10.13;3.10;;;15.60;99.90;;;;;;5038113;28;20029;-61
2022/07/15 01:11:25;;;;;;;11.18;2.90;;;15.60;99.90;;;;;;5039140;28;20129;-61
2022/07/15 01:13:51;;;;;;;10.02;3.10;;;15.50;99.90;;;;;;5040206;28;20027;-61
2022/07/15 01:16:17;;;;;;;9.30;2.80;;;15.30;99.90;;;;;;5045819;28;20025;-61
2022/07/15 01:18:43;;;;;;;10.77;2.70;;;15.30;99.90;;;;;;5038157;28;20029;-61
2022/07/15 01:21:08;;;;;;;7.95;3.00;;;15.00;99.90;;;;;;5042426;28;20031;-61
2022/07/15 01:23:36;;;;;;;9.43;3.20;;;15.00;99.90;;;;;;5041913;28;20495;-61
2022/07/15 01:26:01;;;;;;;10.25;3.00;;;15.00;99.90;;;;;;5046783;28;20047;-60
2022/07/15 01:28:27;;;;;;;11.32;2.78;;;15.10;99.90;;;;;;5037366;28;20028;-60
2022/07/15 01:30:52;;;;;;;7.90;2.80;;;15.10;99.90;;;;;;5043639;28;20028;-61
2022/07/15 01:33:18;;;;;;;6.05;2.88;;;15.10;99.90;;;;;;5044405;28;20188;-60
2022/07/15 01:35:44;;;;;;;7.82;2.63;;;15.10;99.90;;;;;;5039982;28;20109;-61
2022/07/15 01:38:09;;;;;;;6.05;2.90;;;15.20;99.90;;;;;;5036399;28;20100;-61
2022/07/15 01:40:35;;;;;;;8.02;2.65;;;15.10;99.90;;;;;;5040175;28;20104;-60
2022/07/15 01:43:00;;;;;;;9.32;2.88;;;14.90;99.90;;;;;;5040981;28;20632;-61
2022/07/15 01:45:26;;;;;;;11.40;2.90;;;14.80;99.90;;;;;;5041084;28;20381;-60
2022/07/15 01:47:54;;;;;;;8.93;3.13;;;14.80;99.90;;;;;;5039905;28;20036;-61
2022/07/15 01:50:21;;;;;;;6.13;2.55;;;14.70;99.90;;;;;;5038695;28;20388;-61
2022/07/15 01:52:46;;;;;;;8.98;2.70;;;14.80;99.90;;;;;;5042366;28;20031;-61
2022/07/15 01:55:12;;;;;;;10.55;3.00;;;15.00;99.90;;;;;;5043067;28;20021;-60
2022/07/15 01:57:38;;;;;;;8.10;2.53;;;15.00;99.90;;;;;;5040683;28;20070;-61
2022/07/15 02:00:06;;;;;;;10.07;3.20;;;15.00;99.90;;;;;;5039901;28;20655;-61
2022/07/15 02:02:32;;;;;;;7.72;2.70;;;14.90;99.90;;;;;;5036929;28;20124;-61
2022/07/15 02:04:57;;;;;;;10.25;2.78;;;15.00;99.90;;;;;;5038702;28;20162;-61
2022/07/15 02:07:23;;;;;;;9.35;3.40;;;14.80;99.90;;;;;;5036825;28;20032;-61
2022/07/15 02:09:48;;;;;;;9.25;3.05;;;14.60;99.90;;;;;;5041644;28;20078;-61
2022/07/15 02:12:14;;;;;;;9.52;3.30;;;14.60;99.90;;;;;;5040843;28;20035;-61
2022/07/15 02:14:40;;;;;;;9.90;3.17;;;14.50;99.90;;;;;;5038088;28;20031;-61
2022/07/15 02:17:05;;;;;;;8.02;3.58;;;14.40;99.90;;;;;;5038358;28;20118;-60
2022/07/15 02:19:31;;;;;;;9.55;3.85;;;14.20;99.90;;;;;;5042254;28;20036;-61
2022/07/15 02:21:57;;;;;;;11.18;3.58;;;14.30;99.90;;;;;;5045972;28;20025;-60
2022/07/15 02:24:22;;;;;;;10.23;3.20;;;14.40;99.90;;;;;;5037639;28;20029;-61
2022/07/15 02:26:51;;;;;;;11.10;3.22;;;14.50;99.90;;;;;;5044789;28;20033;-61
2022/07/15 02:29:17;;;;;;;7.22;3.22;;;14.70;99.90;;;;;;5033808;28;20092;-61
2022/07/15 02:31:43;;;;;;;6.30;3.13;;;14.80;99.90;;;;;;5044023;28;20029;-61
2022/07/15 02:34:09;;;;;;;11.07;3.58;;;14.90;99.90;;;;;;5045772;28;20420;-61
2022/07/15 02:36:35;;;;;;;7.10;2.95;;;14.80;99.90;;;;;;5046311;28;20024;-61
2022/07/15 02:39:02;;;;;;;8.90;3.47;;;14.70;99.90;;;;;;5036556;28;20036;-61
2022/07/15 02:41:28;;;;;;;11.02;3.60;;;14.80;99.90;;;;;;5043399;28;20017;-61
2022/07/15 02:43:54;;;;;;;7.40;3.17;;;14.70;99.90;;;;;;5050031;28;20029;-61
2022/07/15 02:46:19;;;;;;;8.57;3.45;;;14.70;99.90;;;;;;5047653;28;20705;-61
2022/07/15 02:48:46;;;;;;;9.63;3.83;;;14.70;99.90;;;;;;5039209;28;20044;-61
2022/07/15 02:51:12;;;;;;;8.32;3.35;;;14.60;99.90;;;;;;5048102;28;20789;-60
2022/07/15 02:53:38;;;;;;;11.35;4.15;;;14.70;99.90;;;;;;5047153;28;20032;-61
2022/07/15 02:56:05;;;;;;;7.05;3.13;;;14.60;99.90;;;;;;5038792;28;20491;-61
2022/07/15 02:58:31;;;;;;;6.45;3.50;;;14.60;99.90;;;;;;5037349;28;20037;-61
2022/07/15 03:01:00;;;;;;;10.32;3.55;;;14.50;99.90;;;;;;5043201;28;20043;-60
2022/07/15 03:03:29;;;;;;;7.03;3.72;;;14.50;99.90;;;;;;5040206;28;20120;-61
2022/07/15 03:05:58;;;;;;;6.45;3.60;;;14.60;99.90;;;;;;5040165;28;20056;-61
2022/07/15 03:08:24;;;;;;;10.30;3.63;;;14.50;99.90;;;;;;5038717;28;20035;-60
2022/07/15 03:10:50;;;;;;;8.52;3.63;;;14.40;99.90;;;;;;5041799;28;20021;-60
2022/07/15 03:13:15;;;;;;;10.20;3.70;;;14.40;99.90;;;;;;5033076;28;20023;-61
2022/07/15 03:15:41;;;;;;;8.75;3.33;;;14.40;99.90;;;;;;5036405;28;20036;-60
2022/07/15 03:18:06;;;;;;;8.73;3.70;;;14.40;99.90;;;;;;5038563;28;20576;-61
2022/07/15 03:20:32;;;;;;;9.38;3.65;;;14.30;99.90;;;;;;5046122;28;20021;-61
2022/07/15 03:22:58;;;;;;;7.50;3.63;;;14.20;99.90;;;;;;5039032;28;20040;-61
2022/07/15 03:25:24;;;;;;;8.15;3.63;;;14.20;99.90;;;;;;5035751;28;20037;-61
2022/07/15 03:27:49;;;;;;;9.60;3.53;;;14.20;99.90;;;;;;5041598;28;20037;-60
2022/07/15 03:30:15;;;;;;;7.55;3.47;;;14.10;99.90;;;;;;5038943;28;20021;-59
2022/07/15 03:32:41;;;;;;;8.10;3.40;;;14.20;99.90;;;;;;5043133;28;20029;-60
2022/07/15 03:35:06;;;;;;;6.90;3.78;;;14.20;99.90;;;;;;5052102;28;20029;-61
2022/07/15 03:37:32;;;;;;;11.57;3.70;;;14.10;99.90;;;;;;5042774;28;20029;-61
2022/07/15 03:39:58;;;;;;;8.48;3.67;;;14.10;99.90;;;;;;5038468;28;20711;-61
2022/07/15 03:42:23;;;;;;;7.35;4.10;;;14.20;99.90;;;;;;5046055;28;20369;-61
2022/07/15 03:44:50;;;;;;;8.70;3.75;;;14.00;99.90;;;;;;5045065;28;20080;-60
2022/07/15 03:47:18;;;;;;;7.53;3.70;;;14.00;99.90;;;;;;5040296;28;20025;-61
2022/07/15 03:49:44;;;;;;;8.85;3.30;;;14.00;99.90;;;;;;5041342;28;20047;-61
2022/07/15 03:52:09;;;;;;;9.60;3.90;;;14.00;99.90;;;;;;5051663;28;20025;-60
2022/07/15 03:54:35;;;;;;;6.68;3.78;;;14.10;99.90;;;;;;5040552;28;20480;-60
2022/07/15 03:57:00;;;;;;;10.73;3.60;;;14.10;99.90;;;;;;5039680;28;20041;-61
2022/07/15 03:59:26;;;;;;;7.47;3.50;;;14.10;99.90;;;;;;5046880;28;20428;-61
2022/07/15 04:01:52;;;;;;;9.40;3.35;;;14.10;99.90;;;;;;5038610;28;20296;-60
2022/07/15 04:04:19;;;;;;;8.95;3.20;;;14.20;99.90;;;;;;5042942;28;20022;-61
2022/07/15 04:06:44;;;;;;;6.30;3.38;;;14.10;99.90;;;;;;5043108;28;20035;-61
2022/07/15 04:09:11;;;;;;;10.38;3.65;;;14.30;99.90;;;;;;5043937;28;20101;-61
2022/07/15 04:11:41;;;;;;;7.45;3.13;;;14.30;99.90;;;;;;5048988;28;20063;-60
2022/07/15 04:14:08;;;;;;;6.40;3.40;;;14.30;99.90;;;;;;5033575;28;20083;-61
2022/07/15 04:16:34;;;;;;;12.90;3.45;;;14.30;99.90;;;;;;5036287;28;20022;-61
2022/07/15 04:18:59;;;;;;;11.30;3.80;;;14.40;99.90;;;;;;5032236;28;20036;-61
2022/07/15 04:21:25;;;;;;;7.38;3.40;;;14.30;99.90;;;;;;5039449;28;20071;-61
2022/07/15 04:23:50;;;;;;;11.63;3.63;;;14.40;99.90;;;;;;5037534;28;20302;-60
2022/07/15 04:26:16;;;;;;;10.10;3.53;;;14.50;99.90;;;;;;5039204;28;20102;-60
2022/07/15 04:28:42;;;;;;;8.82;3.45;;;14.60;99.90;;;;;;5045118;28;20036;-60
2022/07/15 04:31:07;;;;;;;9.98;3.55;;;14.40;99.90;;;;;;5039890;28;20055;-60
2022/07/15 04:33:33;;;;;;;8.82;3.15;;;14.20;99.90;;;;;;5041109;28;20036;-61
2022/07/15 04:35:58;;;;;;;10.57;4.30;;;14.30;99.90;;;;;;5037380;28;20052;-61
2022/07/15 04:38:24;;;;;;;9.25;3.90;;;14.40;99.90;;;;;;5040749;28;20025;-61
2022/07/15 04:40:50;;;;;;;13.60;4.68;;;14.30;99.90;;;;;;5039009;28;20271;-60
2022/07/15 04:43:15;;;;;;;13.20;3.88;;;14.50;99.90;;;;;;5045225;28;20099;-61
2022/07/15 04:45:41;;;;;;;14.25;4.32;;;14.50;99.90;;;;;;5041752;28;20057;-61
2022/07/15 04:50:45;;;;;;;11.38;4.20;;;14.80;99.90;;;;;;5044373;28;20021;-61
2022/07/15 04:50:52;;;;;;;10.52;4.18;;;14.60;99.90;;;;;;5046386;28;20040;-61
2022/07/15 04:53:19;;;;;;;7.22;4.25;;;14.60;99.90;;;;;;5045673;28;20029;-60
2022/07/15 04:55:48;;;;;;;12.32;4.40;;;14.60;99.90;;;;;;5037246;28;20330;-60
2022/07/15 04:58:14;;;;;;;12.98;3.83;;;14.70;99.90;;;;;;5040406;28;20032;-61
2022/07/15 05:00:45;;;;;;;12.15;4.43;;;14.80;99.90;;;;;;5040895;28;20039;-61
2022/07/15 05:03:10;;;;;;;9.82;4.03;;;14.90;99.90;;;;;;5040245;28;20099;-60
2022/07/15 05:05:36;;;;;;;9.80;3.97;;;14.80;99.90;;;;;;5054762;28;20036;-61
2022/07/15 05:08:03;;;;;;;11.00;3.95;;;14.90;99.90;;;;;;5045559;28;20081;-61
2022/07/15 05:10:28;;;;;;;11.65;4.40;;;15.10;99.90;;;;;;5041701;28;20541;-61
2022/07/15 05:12:54;;;;;;;8.30;3.67;;;15.30;99.90;;;;;;5043817;28;20029;-61
2022/07/15 05:15:19;;;;;;;14.40;3.95;;;15.20;99.90;;;;;;5041605;28;20120;-61
2022/07/15 05:17:45;;;;;;;11.85;4.00;;;15.40;99.90;;;;;;5042436;28;20045;-61
2022/07/15 05:20:11;;;;;;;9.07;3.95;;;15.40;99.90;;;;;;5047102;28;20113;-61
2022/07/15 05:22:37;;;;;;;11.32;3.50;;;15.40;99.90;;;;;;5040806;28;20033;-61
2022/07/15 05:25:02;;;;;;;8.93;3.67;;;15.40;99.90;;;;;;5038161;28;20027;-61
2022/07/15 05:27:28;;;;;;;10.88;3.63;;;15.70;99.90;;;;;;5046733;28;20054;-59
2022/07/15 05:29:53;;;;;;;12.75;3.60;;;15.30;99.90;;;;;;5043915;28;20559;-61
2022/07/15 05:32:19;;;;;;;13.07;5.80;;;15.40;99.90;;;;;;5048917;28;20690;-58
2022/07/15 05:34:44;;;;;;;15.20;6.50;;;15.60;99.90;;;;;;5047284;28;20096;-59
2022/07/15 05:37:10;;;;;;;10.57;3.70;;;15.80;99.90;;;;;;5040087;28;20052;-61
2022/07/15 05:39:36;;;;;;;10.10;3.15;;;15.60;99.90;;;;;;5039124;28;20384;-60
2022/07/15 05:42:01;;;;;;;12.82;3.28;;;15.60;99.90;;;;;;5043258;28;20067;-60
2022/07/15 05:44:27;;;;;;;12.75;3.28;;;15.40;99.90;;;;;;5046883;28;20392;-60
2022/07/15 05:46:52;;;;;;;10.43;3.05;;;15.60;99.90;;;;;;5031097;28;20033;-60
2022/07/15 05:49:18;;;;;;;8.40;3.28;;;15.70;99.90;;;;;;5041310;28;20378;-60
2022/07/15 05:51:44;;;;;;;13.88;3.58;;;15.90;99.90;;;;;;5042781;28;20100;-61
2022/07/15 05:54:13;;;;;;;12.45;3.22;;;15.80;99.90;;;;;;5052100;28;20013;-61
2022/07/15 05:56:38;;;;;;;10.05;2.92;;;15.90;99.90;;;;;;5040476;28;20544;-61
2022/07/15 05:59:04;;;;;;;10.55;2.70;;;15.90;99.90;;;;;;5040798;28;20033;-60
2022/07/15 06:01:32;;;;;;;14.25;3.25;;;15.90;99.90;;;;;;5045684;28;20036;-61
2022/07/15 06:03:58;;;;;;;14.82;3.15;;;16.10;99.90;;;;;;5037891;28;20377;-60
2022/07/15 06:06:23;;;;;;;10.95;3.00;;;16.00;99.90;;;;;;5041840;28;20086;-60
2022/07/15 06:08:49;;;;;;;9.88;3.03;;;16.10;99.90;;;;;;5038153;28;20032;-60
2022/07/15 06:11:14;;;;;;;14.77;2.80;;;16.20;99.90;;;;;;5042659;28;20389;-61
2022/07/15 06:13:40;;;;;;;12.30;2.50;;;16.20;99.90;;;;;;5035909;28;20041;-60
2022/07/15 06:16:07;;;;;;;8.00;2.35;;;16.40;99.90;;;;;;5041391;28;20021;-60
2022/07/15 06:18:32;;;;;;;10.85;2.42;;;16.20;99.90;;;;;;5021807;28;20036;-60
2022/07/15 06:20:58;;;;;;;8.77;2.38;;;16.30;99.90;;;;;;5036751;28;20583;-60
2022/07/15 06:23:24;;;;;;;9.63;2.47;;;16.40;99.90;;;;;;5038569;28;20033;-61
2022/07/15 06:25:49;;;;;;;9.45;2.30;;;16.20;99.90;;;;;;5041021;28;20491;-61
2022/07/15 06:28:15;;;;;;;10.38;2.03;;;16.40;99.90;;;;;;5038261;28;20020;-60
2022/07/15 06:30:40;;;;;;;8.70;1.85;;;16.40;99.90;;;;;;5038721;28;20146;-61
2022/07/15 06:33:06;;;;;;;8.52;1.70;;;16.60;99.90;;;;;;5028772;28;20029;-61
2022/07/15 06:35:32;;;;;;;11.77;2.03;;;16.50;99.90;;;;;;5028844;28;20021;-61
2022/07/15 06:37:57;;;;;;;8.25;1.58;;;16.60;99.90;;;;;;5035784;28;20058;-61
2022/07/15 06:40:23;;;;;;;10.70;1.73;;;16.70;99.90;;;;;;5035158;28;20028;-60
2022/07/15 06:42:48;;;;;;;6.57;1.92;;;16.50;99.90;;;;;;5030570;28;20139;-60
2022/07/15 06:45:14;;;;;;;10.43;2.03;;;16.50;99.90;;;;;;5042510;28;20055;-60
2022/07/15 06:47:41;;;;;;;11.57;2.25;;;16.60;99.90;;;;;;5032273;28;20289;-61
2022/07/15 06:50:07;;;;;;;8.75;1.70;;;16.80;99.90;;;;;;5039504;28;20032;-61
2022/07/15 06:52:33;;;;;;;9.40;1.95;;;17.00;99.90;;;;;;5042817;28;20313;-60
2022/07/15 06:54:58;;;;;;;11.68;1.95;;;17.10;99.90;;;;;;5033170;28;20047;-61
2022/07/15 06:57:24;;;;;;;12.52;2.10;;;17.20;99.90;;;;;;5040197;28;20533;-61
2022/07/15 06:59:49;;;;;;;4.95;1.60;;;17.50;99.90;;;;;;5037210;28;20112;-61
2022/07/15 07:02:16;;;;;;;9.38;1.50;;;17.10;99.90;;;;;;5038760;28;20092;-61
2022/07/15 07:04:42;;;;;;;9.93;1.98;;;17.00;99.90;;;;;;5039176;28;20105;-62
2022/07/15 07:07:08;;;;;;;7.60;1.60;;;17.10;99.90;;;;;;5049836;28;20468;-62
2022/07/15 07:09:33;;;;;;;6.50;1.35;;;17.20;99.90;;;;;;5043417;28;20021;-62
2022/07/15 07:11:59;;;;;;;6.47;1.50;;;17.20;99.90;;;;;;5036946;28;20040;-62
2022/07/15 07:14:24;;;;;;;8.77;1.80;;;17.30;99.90;;;;;;5030928;28;20113;-62
2022/07/15 07:16:50;;;;;;;7.60;1.70;;;17.50;99.90;;;;;;5037200;28;20026;-61
2022/07/15 07:19:16;;;;;;;6.80;1.42;;;17.60;99.90;;;;;;5043271;28;20021;-61
2022/07/15 07:21:41;;;;;;;4.70;1.40;;;17.70;99.90;;;;;;5042110;28;20033;-62
2022/07/15 07:24:07;;;;;;;4.70;1.40;;;17.60;99.90;;;;;;5036422;28;20093;-61
2022/07/15 07:26:33;;;;;;;9.98;2.05;;;17.40;99.90;;;;;;5041982;28;20377;-62
2022/07/15 07:29:02;;;;;;;7.55;1.20;;;17.70;99.90;;;;;;5042777;28;20173;-62
2022/07/15 07:31:27;;;;;;;6.55;1.20;;;17.80;99.90;;;;;;5039819;28;20033;-62
2022/07/15 07:33:55;;;;;;;6.47;1.75;;;17.70;99.90;;;;;;5037916;28;20029;-61
2022/07/15 07:36:21;;;;;;;7.63;1.35;;;17.80;99.90;;;;;;5042528;28;20096;-62
2022/07/15 07:38:47;;;;;;;7.25;1.33;;;17.80;99.90;;;;;;5042729;28;20033;-61
2022/07/15 07:41:12;;;;;;;5.57;1.30;;;17.70;99.90;;;;;;5041527;28;20436;-62
2022/07/15 07:43:38;;;;;;;5.93;1.58;;;17.30;99.90;;;;;;5042164;28;20058;-61
2022/07/15 07:46:04;;;;;;;4.13;1.25;;;17.00;99.90;;;;;;5032878;28;20603;-61
2022/07/15 07:48:30;;;;;;;6.88;1.58;;;16.90;99.90;;;;;;5035765;28;20093;-62
2022/07/15 07:50:56;;;;;;;9.13;1.42;;;17.20;99.90;;;;;;5040791;28;20109;-62
2022/07/15 07:53:22;;;;;;;7.13;1.40;;;17.10;99.90;;;;;;5029520;28;20037;-62
2022/07/15 07:55:48;;;;;;;5.65;1.30;;;17.10;99.90;;;;;;5040630;28;20082;-62
2022/07/15 07:58:16;;;;;;;5.45;1.30;;;17.30;99.90;;;;;;5035658;28;20249;-62
2022/07/15 08:00:43;;;;;;;5.50;1.63;;;17.60;99.90;;;;;;5043213;28;20033;-62
2022/07/15 08:03:08;;;;;;;7.22;1.30;;;18.00;99.90;;;;;;5036657;28;20044;-62
2022/07/15 08:05:34;;;;;;;5.25;1.25;;;18.40;99.90;;;;;;5050001;28;20021;-61
2022/07/15 08:08:14;;;;;;;4.72;1.20;;;18.60;99.90;;;;;;5043388;28;20481;-62
2022/07/15 08:10:42;;;;;;;5.03;1.33;;;18.90;99.90;;;;;;5040307;28;20979;-62
2022/07/15 08:13:07;;;;;;;6.80;1.20;;;18.50;99.90;;;;;;5032257;28;20078;-61
2022/07/15 08:15:33;;;;;;;4.75;1.35;;;18.50;99.90;;;;;;5029830;28;20029;-62
2022/07/15 08:18:00;;;;;;;6.50;1.20;;;18.50;99.90;;;;;;5038234;28;20426;-62
2022/07/15 08:20:25;;;;;;;5.03;1.20;;;18.40;99.90;;;;;;5038963;28;20034;-61
2022/07/15 08:22:57;;;;;;;6.38;1.30;;;18.40;99.90;;;;;;5039688;28;20393;-62
2022/07/15 08:25:33;;;;;;;5.07;1.40;;;18.30;99.90;;;;;;5038276;28;20036;-62
2022/07/15 08:27:59;;;;;;;3.97;1.15;;;18.30;99.90;;;;;;5043947;28;20060;-62
2022/07/15 08:30:27;;;;;;;3.97;1.13;;;18.50;99.90;;;;;;5049360;28;20044;-62
2022/07/15 08:32:52;;;;;;;5.80;1.42;;;18.50;99.90;;;;;;5045549;28;20024;-62
2022/07/15 08:35:18;;;;;;;4.28;1.10;;;18.40;99.90;;;;;;5045173;28;20211;-62
2022/07/15 08:37:44;;;;;;;6.20;1.20;;;18.30;99.90;;;;;;5037878;28;20025;-62
2022/07/15 08:40:10;;;;;;;6.47;1.30;;;18.80;99.90;;;;;;5043276;28;20017;-62
2022/07/15 08:42:43;;;;;;;5.95;1.52;;;18.90;99.90;;;;;;5034834;28;20052;-61
2022/07/15 08:45:10;;;;;;;3.90;1.15;;;19.10;99.90;;;;;;5036206;28;20040;-62
2022/07/15 08:47:38;;;;;;;9.95;1.50;;;19.10;99.90;;;;;;5039513;28;20504;-62
2022/07/15 08:50:05;;;;;;;7.40;1.20;;;18.80;99.90;;;;;;5039023;28;20020;-62
2022/07/15 08:52:33;;;;;;;11.40;1.77;;;18.70;99.90;;;;;;5042609;28;20029;-62
2022/07/15 08:54:59;;;;;;;8.40;1.25;;;18.70;99.90;;;;;;5039024;28;20025;-62
2022/07/15 08:57:25;;;;;;;4.43;1.00;;;19.00;99.90;;;;;;5043929;28;20389;-62
2022/07/15 08:59:54;;;;;;;5.80;1.23;;;19.10;99.90;;;;;;5044493;28;20564;-62
2022/07/15 09:02:20;;;;;;;5.53;1.40;;;19.20;99.90;;;;;;5036722;28;20687;-61
2022/07/15 09:05:21;;;;;;;5.95;1.42;;;19.30;99.90;;;;;;5047700;28;20020;-62
2022/07/15 09:07:55;;;;;;;5.97;1.02;;;19.10;99.90;;;;;;5035474;28;20025;-62
2022/07/15 09:10:21;;;;;;;;;;;19.10;99.90;;;;;;5036413;28;20113;-62
2022/07/15 09:12:51;;;;;;;5.82;1.23;;;19.20;99.90;;;;;;5047838;28;19908;-61
2022/07/15 09:15:30;;;;;;;3.78;1.17;;;19.40;99.90;;;;;;5043491;28;20021;-61
2022/07/15 09:18:11;;;;;;;4.75;1.42;;;19.20;99.90;;;;;;5037956;28;20028;-61
2022/07/15 09:20:38;;;;;;;5.55;1.35;;;19.20;99.90;;;;;;5038285;28;20079;-62
2022/07/15 09:23:05;;;;;;;7.78;1.20;;;19.30;99.90;;;;;;5038403;28;20503;-61
2022/07/15 09:25:36;;;;;;;4.32;1.25;;;19.60;99.90;;;;;;5038298;28;20025;-62
2022/07/15 09:28:05;;;;;;;5.07;1.38;;;19.70;99.90;;;;;;5035955;28;20360;-62
2022/07/15 09:33:37;;;;;;;4.55;1.20;;;19.80;99.90;;;;;;5046829;28;20039;-62
2022/07/15 09:36:09;;;;;;;4.28;0.98;;;19.80;99.90;;;;;;5041148;28;20032;-60
2022/07/15 09:38:49;;;;;;;6.90;1.15;;;19.90;99.90;;;;;;5043457;28;20037;-62
2022/07/15 09:41:28;;;;;;;5.22;1.35;;;19.90;99.90;;;;;;5042413;28;20029;-62
2022/07/15 09:44:10;;;;;;;7.43;1.30;;;19.90;99.90;;;;;;5049000;28;20056;-61
2022/07/15 09:46:49;;;;;;;4.43;1.13;;;19.90;99.90;;;;;;5035821;28;20115;-62
2022/07/15 09:49:32;;;;;;;7.22;1.38;;;20.10;99.90;;;;;;5045126;28;20021;-62
2022/07/15 09:52:08;;;;;;;5.43;1.13;;;20.30;99.90;;;;;;5046622;28;20024;-61
2022/07/15 09:54:39;;;;;;;4.13;1.10;;;20.70;99.90;;;;;;5040882;28;20021;-62
2022/07/15 09:57:11;;;;;;;6.05;1.17;;;20.40;99.90;;;;;;5054194;28;20024;-61
2022/07/15 09:59:37;;;;;;;5.63;1.30;;;20.10;99.90;;;;;;5039274;28;20081;-62
2022/07/15 10:02:03;;;;;;;7.13;1.30;;;19.60;99.90;;;;;;5038745;28;20036;-61
2022/07/15 10:04:30;;;;;;;5.00;1.02;;;19.60;99.90;;;;;;5039054;28;20060;-62
2022/07/15 10:06:59;;;;;;;4.72;1.40;;;19.80;99.90;;;;;;5048015;28;20017;-63
2022/07/15 10:09:28;;;;;;;6.50;1.10;;;20.00;99.90;;;;;;5042168;28;20525;-63
2022/07/15 10:11:57;;;;;;;7.22;1.50;;;20.40;99.90;;;;;;5045412;28;20051;-62
2022/07/15 10:14:42;;;;;;;3.97;0.95;;;20.70;99.90;;;;;;5034950;28;20022;-61
2022/07/15 10:17:26;;;;;;;4.25;0.93;;;20.50;99.90;;;;;;5042837;28;20673;-62
2022/07/15 10:20:20;;;;;;;5.25;1.27;;;20.40;99.90;;;;;;5033674;28;20119;-62
2022/07/15 10:23:20;;;;;;;2.95;0.88;;;20.50;99.90;;;;;;5061315;28;20045;-62
2022/07/15 10:25:57;;;;;;;3.90;1.20;;;20.50;99.90;;;;;;5039840;28;20111;-63
2022/07/15 10:28:49;;;;;;;5.68;1.00;;;20.40;99.90;;;;;;5040136;28;20100;-61
2022/07/15 10:31:20;;;;;;;11.07;1.25;;;20.40;99.90;;;;;;5046420;28;20021;-62
2022/07/15 10:34:04;;;;;;;4.35;1.15;;;20.50;99.90;;;;;;5043429;28;20420;-62
2022/07/15 10:36:40;;;;;;;4.68;1.00;;;20.50;99.90;;;;;;5040921;28;20032;-62
2022/07/15 10:39:06;;;;;;;3.80;0.95;;;20.20;99.90;;;;;;5037538;28;20372;-62
2022/07/15 10:41:52;;;;;;;7.75;1.15;;;20.40;99.90;;;;;;5039504;28;20044;-62
2022/07/15 10:44:18;;;;;;;4.43;0.95;;;20.60;99.90;;;;;;5040982;28;20025;-62
2022/07/15 10:46:43;;;;;;;3.95;1.13;;;20.70;99.90;;;;;;5038374;28;20075;-61
2022/07/15 10:49:09;;;;;;;4.75;1.20;;;20.90;99.90;;;;;;5048572;28;20029;-62
2022/07/15 10:51:34;;;;;;;4.22;0.88;;;20.90;99.90;;;;;;5044478;28;21248;-61
2022/07/15 10:54:01;;;;;;;5.80;1.10;;;20.80;99.90;;;;;;5037117;28;20025;-62
2022/07/15 10:56:36;;;;;;;3.30;1.10;;;20.60;99.90;;;;;;5040196;28;20024;-62
2022/07/15 10:59:08;;;;;;;3.92;1.00;;;20.40;99.90;;;;;;5044098;28;20144;-62
2022/07/15 11:01:34;;;;;;;4.70;0.97;;;20.50;99.90;;;;;;5048625;28;20024;-62
2022/07/15 11:04:19;;;;;;;4.93;1.10;;;20.70;99.90;;;;;;5040925;28;20193;-62
2022/07/15 11:07:03;;;;;;;9.75;1.15;;;20.50;99.90;;;;;;5043108;28;20040;-62
2022/07/15 11:09:48;;;;;;;8.00;1.20;;;20.40;99.90;;;;;;5042062;28;20090;-61
2022/07/15 11:12:17;;;;;;;5.45;0.73;;;20.50;99.90;;;;;;5042448;28;20056;-62
2022/07/15 11:14:47;;;;;;;3.53;1.00;;;20.70;99.90;;;;;;5038825;28;20036;-63
2022/07/15 11:17:16;;;;;;;3.10;0.85;;;20.90;99.90;;;;;;5046092;28;20029;-62
2022/07/15 11:19:45;;;;;;;3.67;0.98;;;20.80;99.90;;;;;;5033955;28;20028;-63
2022/07/15 11:22:11;;;;;;;3.53;0.88;;;21.10;99.90;;;;;;5036547;28;20036;-61
2022/07/15 11:24:37;;;;;;;3.50;1.00;;;20.90;99.90;;;;;;5043388;28;20469;-63
2022/07/15 11:27:03;;;;;;;5.18;1.00;;;20.90;99.90;;;;;;5036923;28;20029;-63
2022/07/15 11:29:43;;;;;;;2.72;0.98;;;21.30;99.90;;;;;;5036246;28;20026;-62
2022/07/15 11:32:08;;;;;;;7.72;1.10;;;21.60;99.90;;;;;;5040596;28;20021;-63
2022/07/15 11:34:50;;;;;;;4.47;1.17;;;21.40;99.90;;;;;;5042028;28;20021;-61
2022/07/15 11:37:18;;;;;;;3.22;1.02;;;21.20;99.90;;;;;;5040406;28;20439;-61
2022/07/15 11:39:48;;;;;;;5.82;1.25;;;21.30;99.90;;;;;;5043422;28;20037;-63
2022/07/15 11:45:08;;;;;;;4.00;0.95;;;21.50;99.90;;;;;;5034649;28;20106;-63
2022/07/15 11:47:35;;;;;;;4.47;0.98;;;21.70;99.90;;;;;;5039094;28;20032;-62
2022/07/15 11:50:04;;;;;;;3.67;0.98;;;21.90;99.90;;;;;;5038541;28;20059;-63
2022/07/15 11:52:31;;;;;;;4.30;0.88;;;21.80;99.90;;;;;;5048277;28;20050;-63
2022/07/15 11:54:57;;;;;;;7.65;0.88;;;21.80;99.90;;;;;;5048942;28;20032;-62
2022/07/15 11:57:23;;;;;;;4.60;0.90;;;21.80;99.90;;;;;;5043832;28;20036;-63
2022/07/15 11:59:57;;;;;;;3.90;0.90;;;21.90;99.90;;;;;;5040293;28;20025;-62
2022/07/15 12:02:24;;;;;;;5.72;1.40;;;21.80;99.90;;;;;;5042240;28;20778;-62
2022/07/15 12:04:51;;;;;;;4.00;1.10;;;22.10;99.90;;;;;;5041112;28;20111;-62
2022/07/15 12:07:16;;;;;;;4.22;1.17;;;22.20;99.90;;;;;;5043340;28;20037;-62
2022/07/15 12:09:44;;;;;;;3.60;0.90;;;22.30;99.90;;;;;;5038415;28;20051;-63
2022/07/15 12:12:10;;;;;;;2.58;0.90;;;22.40;99.90;;;;;;5039477;28;20013;-62
2022/07/15 12:14:37;;;;;;;2.67;0.80;;;22.00;99.90;;;;;;5046011;28;20445;-62
2022/07/15 12:17:04;;;;;;;5.13;1.10;;;21.70;99.90;;;;;;5042021;28;20112;-63
2022/07/15 12:19:32;;;;;;;5.82;1.20;;;21.70;99.90;;;;;;5038294;28;20070;-61
2022/07/15 12:22:04;;;;;;;3.78;0.90;;;21.70;99.90;;;;;;5043531;28;20040;-62
2022/07/15 12:24:56;;;;;;;5.80;0.98;;;21.40;99.90;;;;;;5037674;28;20041;-62
2022/07/15 12:27:37;;;;;;;3.58;0.88;;;21.30;99.90;;;;;;5037027;28;20066;-62
2022/07/15 12:30:06;;;;;;;3.55;0.93;;;21.40;99.90;;;;;;5042089;28;20056;-61
2022/07/15 12:32:32;;;;;;;2.33;0.70;;;21.80;99.90;;;;;;5037554;28;20696;-62
2022/07/15 12:35:02;;;;;;;3.25;0.90;;;21.90;99.90;;;;;;5038185;28;20021;-62
2022/07/15 12:37:30;;;;;;;3.17;1.02;;;21.70;99.90;;;;;;5039368;28;20029;-62
2022/07/15 12:40:00;;;;;;;3.38;0.75;;;21.50;99.90;;;;;;5041632;28;20037;-62
2022/07/15 12:42:30;;;;;;;3.25;0.90;;;21.70;99.90;;;;;;5035905;28;20032;-62
2022/07/15 12:45:12;;;;;;;2.15;0.80;;;21.80;99.90;;;;;;5043938;28;20461;-61
2022/07/15 12:47:59;;;;;;;3.40;0.77;;;22.00;99.90;;;;;;5041546;28;20029;-63
2022/07/15 12:50:25;;;;;;;2.95;0.90;;;22.20;99.90;;;;;;5043544;28;20541;-62
2022/07/15 12:52:54;;;;;;;2.58;0.80;;;22.10;99.90;;;;;;5037325;28;20876;-62
2022/07/15 12:55:26;;;;;;;7.03;1.00;;;22.00;99.90;;;;;;5033156;28;20028;-62
2022/07/15 12:58:03;;;;;;;7.68;1.08;;;21.80;99.90;;;;;;5038169;28;20119;-63